Marble Falls' Hourly Summary for Thursday, July 5, 2018
Hour Temp
(f)
RH
(%)
Solar Rad.
(MJ/m2)
Rainfall
(in)
Wind
(mph)
7/5/2018 12:00 AM 73 100 0 0 2.82
7/5/2018 1:00 AM 72 100 0 0 2.82
7/5/2018 2:00 AM 71 100 0 0 2.88
7/5/2018 3:00 AM 70 100 0 0 1.28
7/5/2018 4:00 AM 70 100 0 0 1.55
7/5/2018 5:00 AM 70 100 0 0 1.55
7/5/2018 6:00 AM 70 99 0 0 0.86
7/5/2018 7:00 AM 71 99 0.12 0 0.8
7/5/2018 8:00 AM 73 98 0.27 0 1.66
7/5/2018 9:00 AM 76 95 1.13 0 2.33
7/5/2018 10:00 AM 79 79 1.71 0 3.75
7/5/2018 11:00 AM 82 69 2.12 0 6.05
7/5/2018 12:00 PM 82 61 2.12 0 6.05
7/5/2018 1:00 PM 83 61 1.97 0 2.38
7/5/2018 2:00 PM 84 58 1.97 0 1.52
7/5/2018 3:00 PM 86 58 2.07 0 1.49
7/5/2018 4:00 PM 89 50 2.57 0 2.67
7/5/2018 5:00 PM 91 43 2.57 0 2.67
7/5/2018 6:00 PM 91 38 2.03 0 2.16
7/5/2018 7:00 PM 91 39 1.35 0 2.14
7/5/2018 8:00 PM 90 44 0.68 0 1.5
7/5/2018 9:00 PM 89 50 0.18 0 0.91
7/5/2018 10:00 PM 85 61 0 0 0.22
7/5/2018 11:00 PM 82 73 0 0 0.14
Data Summary 80 73 22.86 0.00 2.18